Time;durP1;ratioP1;P1;durP2;ratioP2;P2;SDS_P1;SDS_P2;PMS_P1;PMS_P2;Temp;Humidity;BMP_temperature;BMP_pressure;BME280_temperature;BME280_humidity;BME280_pressure;Samples;Min_cycle;Max_cycle;Signal;HPM_P1;HPM_P2
2023/12/22 00:01:01;;;;;;;6.95;2.08;;;;;;;;;;5034194;28;20064;-81
2023/12/22 00:03:27;;;;;;;5.55;1.30;;;;;;;;;;5056710;28;20083;-81
2023/12/22 00:05:53;;;;;;;8.70;1.67;;;;;;;;;;5052083;28;20045;-80
2023/12/22 00:08:19;;;;;;;8.55;1.90;;;;;;;;;;5020853;28;20037;-80
2023/12/22 00:10:45;;;;;;;12.43;1.48;;;;;;;;;;5031538;28;20123;-81
2023/12/22 00:13:11;;;;;;;5.93;1.23;;;;;;;;;;5053152;28;20037;-82
2023/12/22 00:15:37;;;;;;;8.68;2.03;;;;;;;;;;5049638;28;20045;-80
2023/12/22 00:18:04;;;;;;;6.85;2.20;;;;;;;;;;5044345;28;20467;-80
2023/12/22 00:20:30;;;;;;;15.90;3.10;;;;;;;;;;5050385;28;20040;-80
2023/12/22 00:22:56;;;;;;;13.65;2.58;;;;;;;;;;5048574;28;20033;-80
2023/12/22 00:25:22;;;;;;;7.25;2.00;;;;;;;;;;5048268;28;20381;-80
2023/12/22 00:27:48;;;;;;;13.57;3.03;;;;;;;;;;5049244;28;20040;-80
2023/12/22 00:30:14;;;;;;;11.30;2.22;;;;;;;;;;5048994;28;20076;-80
2023/12/22 00:32:40;;;;;;;9.55;2.00;;;;;;;;;;5048486;28;20045;-80
2023/12/22 00:35:06;;;;;;;10.73;1.42;;;;;;;;;;5037139;28;20041;-80
2023/12/22 00:37:32;;;;;;;6.80;2.13;;;;;;;;;;5046344;28;20160;-81
2023/12/22 00:39:58;;;;;;;1.23;0.95;;;;;;;;;;5050202;28;20083;-81
2023/12/22 00:42:25;;;;;;;5.65;1.17;;;;;;;;;;5047977;28;20780;-80
2023/12/22 00:44:51;;;;;;;3.13;1.15;;;;;;;;;;5044332;28;20071;-80
2023/12/22 00:47:17;;;;;;;7.97;2.20;;;;;;;;;;5047121;28;20038;-81
2023/12/22 00:49:45;;;;;;;8.90;2.80;;;;;;;;;;5054299;28;20068;-81
2023/12/22 00:52:11;;;;;;;8.18;1.70;;;;;;;;;;5033101;28;20505;-81
2023/12/22 00:54:36;;;;;;;6.32;1.60;;;;;;;;;;5032317;28;20068;-81
2023/12/22 00:57:02;;;;;;;6.05;1.80;;;;;;;;;;5028016;28;20149;-81
2023/12/22 00:59:28;;;;;;;6.10;1.30;;;;;;;;;;5047759;28;20124;-80
2023/12/22 01:01:54;;;;;;;5.72;1.52;;;;;;;;;;5025652;28;20126;-80
2023/12/22 01:04:20;;;;;;;6.43;2.20;;;;;;;;;;5048458;28;20040;-80
2023/12/22 01:06:46;;;;;;;8.68;1.95;;;;;;;;;;5043711;28;20473;-81
2023/12/22 01:09:14;;;;;;;6.05;1.30;;;;;;;;;;5047834;28;20072;-80
2023/12/22 01:11:40;;;;;;;7.45;1.75;;;;;;;;;;5050753;28;20571;-79
2023/12/22 01:14:06;;;;;;;11.65;2.90;;;;;;;;;;5030819;28;20110;-80
2023/12/22 01:16:33;;;;;;;6.18;2.13;;;;;;;;;;5032946;28;20125;-80
2023/12/22 01:18:59;;;;;;;8.82;2.83;;;;;;;;;;5051964;28;20041;-81
2023/12/22 01:21:25;;;;;;;6.28;2.03;;;;;;;;;;5049081;28;20049;-80
2023/12/22 01:23:51;;;;;;;2.75;1.02;;;;;;;;;;5043836;28;20041;-80
2023/12/22 01:26:17;;;;;;;7.70;2.13;;;;;;;;;;5053637;28;20041;-80
2023/12/22 01:28:43;;;;;;;6.57;1.42;;;;;;;;;;5052245;28;20036;-80
2023/12/22 01:31:09;;;;;;;3.22;0.90;;;;;;;;;;5034753;28;20045;-80
2023/12/22 01:33:35;;;;;;;5.15;1.48;;;;;;;;;;5051203;28;20037;-80
2023/12/22 01:36:01;;;;;;;4.65;1.52;;;;;;;;;;5045356;28;20037;-80
2023/12/22 01:38:27;;;;;;;6.60;1.52;;;;;;;;;;5029496;28;20463;-80
2023/12/22 01:40:54;;;;;;;13.90;2.40;;;;;;;;;;5046989;28;20032;-80
2023/12/22 01:43:21;;;;;;;5.10;2.35;;;;;;;;;;5043758;28;20030;-80
2023/12/22 01:45:57;;;;;;;10.07;2.20;;;;;;;;;;5044406;28;20535;-80
2023/12/22 01:48:23;;;;;;;4.28;1.27;;;;;;;;;;5025816;28;20090;-80
2023/12/22 01:50:51;;;;;;;13.45;2.25;;;;;;;;;;5030053;28;20037;-81
2023/12/22 01:53:17;;;;;;;5.93;1.48;;;;;;;;;;5027617;28;20049;-80
2023/12/22 01:55:43;;;;;;;8.27;1.30;;;;;;;;;;5048575;28;20119;-80
2023/12/22 01:58:10;;;;;;;4.07;1.30;;;;;;;;;;5043482;28;20045;-80
2023/12/22 02:00:36;;;;;;;10.20;1.77;;;;;;;;;;5054101;28;20128;-80
2023/12/22 02:03:02;;;;;;;7.07;1.95;;;;;;;;;;5055855;28;20047;-80
2023/12/22 02:05:31;;;;;;;8.07;1.65;;;;;;;;;;5050578;28;20084;-80
2023/12/22 02:07:57;;;;;;;3.55;0.98;;;;;;;;;;5058951;28;20484;-80
2023/12/22 02:10:23;;;;;;;8.85;1.60;;;;;;;;;;5048947;28;20033;-81
2023/12/22 02:12:49;;;;;;;6.47;1.80;;;;;;;;;;5054036;28;20041;-81
2023/12/22 02:15:15;;;;;;;7.53;1.40;;;;;;;;;;5048168;28;20094;-80
2023/12/22 02:17:41;;;;;;;5.90;1.58;;;;;;;;;;5048644;28;20128;-80
2023/12/22 02:20:08;;;;;;;8.10;1.50;;;;;;;;;;5052863;28;20029;-80
2023/12/22 02:22:34;;;;;;;8.50;1.63;;;;;;;;;;5052805;28;20049;-81
2023/12/22 02:25:00;;;;;;;9.63;2.35;;;;;;;;;;5047883;28;20112;-81
2023/12/22 02:27:28;;;;;;;3.83;1.55;;;;;;;;;;5058178;28;20037;-81
2023/12/22 02:30:04;;;;;;;7.45;1.40;;;;;;;;;;5054709;28;20041;-81
2023/12/22 02:32:32;;;;;;;7.22;1.27;;;;;;;;;;5049705;28;20032;-81
2023/12/22 02:34:59;;;;;;;6.07;2.03;;;;;;;;;;5048000;28;20051;-81
2023/12/22 02:37:26;;;;;;;7.70;1.45;;;;;;;;;;5039647;28;20045;-81
2023/12/22 02:39:52;;;;;;;7.90;1.98;;;;;;;;;;5050837;28;20049;-82
2023/12/22 02:42:19;;;;;;;5.35;1.13;;;;;;;;;;5049813;28;20045;-80
2023/12/22 02:44:45;;;;;;;4.05;1.23;;;;;;;;;;5048208;28;20045;-80
2023/12/22 02:47:11;;;;;;;4.90;1.33;;;;;;;;;;5051173;28;20041;-81
2023/12/22 02:49:37;;;;;;;5.03;0.82;;;;;;;;;;5056217;28;20079;-81
2023/12/22 02:52:04;;;;;;;8.63;2.35;;;;;;;;;;5051330;28;20056;-81
2023/12/22 02:54:31;;;;;;;3.78;1.08;;;;;;;;;;5041435;28;20037;-80
2023/12/22 02:56:58;;;;;;;7.63;1.60;;;;;;;;;;5045093;28;20104;-80
2023/12/22 02:59:25;;;;;;;8.73;1.75;;;;;;;;;;5043440;28;20123;-80
2023/12/22 03:01:51;;;;;;;4.55;1.90;;;;;;;;;;5042377;28;20065;-80
2023/12/22 03:04:18;;;;;;;5.80;0.82;;;;;;;;;;5046832;28;20043;-82
2023/12/22 03:06:43;;;;;;;2.85;0.98;;;;;;;;;;5052835;28;20075;-81
2023/12/22 03:09:10;;;;;;;4.65;0.90;;;;;;;;;;5027385;28;20481;-79
2023/12/22 03:11:35;;;;;;;5.05;1.08;;;;;;;;;;5027258;28;20044;-80
2023/12/22 03:14:01;;;;;;;2.30;0.73;;;;;;;;;;5044215;28;20049;-80
2023/12/22 03:16:27;;;;;;;4.80;1.17;;;;;;;;;;5028455;28;20053;-81
2023/12/22 03:18:53;;;;;;;5.45;1.13;;;;;;;;;;5051586;28;20045;-81
2023/12/22 03:21:20;;;;;;;2.20;0.50;;;;;;;;;;5038341;28;20045;-80
2023/12/22 03:23:46;;;;;;;5.15;0.93;;;;;;;;;;5050170;28;20158;-80
2023/12/22 03:26:12;;;;;;;0.47;0.30;;;;;;;;;;5049068;28;20049;-81
2023/12/22 03:28:38;;;;;;;1.58;0.88;;;;;;;;;;5052467;28;20029;-81
2023/12/22 03:31:06;;;;;;;6.03;1.02;;;;;;;;;;5056021;28;20086;-80
2023/12/22 03:33:32;;;;;;;2.33;1.27;;;;;;;;;;5055786;28;20044;-81
2023/12/22 03:35:57;;;;;;;3.55;1.30;;;;;;;;;;5044284;28;20045;-81
2023/12/22 03:38:23;;;;;;;0.00;0.00;;;;;;;;;;5041507;28;20059;-80
2023/12/22 03:40:49;;;;;;;4.03;0.85;;;;;;;;;;5039965;28;20105;-80
2023/12/22 03:43:15;;;;;;;1.80;0.47;;;;;;;;;;5051179;28;20035;-81
2023/12/22 03:45:41;;;;;;;6.85;1.42;;;;;;;;;;5057259;28;20045;-81
2023/12/22 03:48:07;;;;;;;11.30;1.15;;;;;;;;;;5052927;28;20037;-81
2023/12/22 03:50:33;;;;;;;7.25;1.02;;;;;;;;;;5048154;28;20047;-80
2023/12/22 03:52:59;;;;;;;6.13;1.08;;;;;;;;;;5044037;28;20078;-81
2023/12/22 03:55:25;;;;;;;5.90;1.25;;;;;;;;;;5043384;28;20534;-80
2023/12/22 03:57:51;;;;;;;6.15;1.10;;;;;;;;;;5024125;28;20059;-80
2023/12/22 04:00:17;;;;;;;1.27;0.68;;;;;;;;;;5042349;28;20068;-80
2023/12/22 04:02:43;;;;;;;2.92;0.85;;;;;;;;;;5041616;28;20037;-80
2023/12/22 04:05:11;;;;;;;5.22;1.38;;;;;;;;;;5026224;28;20068;-80
2023/12/22 04:07:37;;;;;;;11.93;1.88;;;;;;;;;;5028280;28;20484;-80
2023/12/22 04:10:03;;;;;;;10.82;1.70;;;;;;;;;;5042951;28;20083;-80
2023/12/22 04:12:29;;;;;;;8.90;1.45;;;;;;;;;;5038544;28;20048;-79
2023/12/22 04:14:55;;;;;;;4.78;1.70;;;;;;;;;;5026688;28;20136;-81
2023/12/22 04:17:21;;;;;;;4.35;0.93;;;;;;;;;;5055120;28;20033;-80
2023/12/22 04:19:47;;;;;;;7.38;1.55;;;;;;;;;;5047041;28;20041;-80
2023/12/22 04:22:13;;;;;;;3.42;1.23;;;;;;;;;;5055016;28;20403;-80
2023/12/22 04:24:39;;;;;;;5.65;1.42;;;;;;;;;;5062625;28;20041;-80
2023/12/22 04:27:05;;;;;;;6.88;1.50;;;;;;;;;;5057947;28;20115;-81
2023/12/22 04:29:32;;;;;;;4.82;1.15;;;;;;;;;;5051985;28;20389;-80
2023/12/22 04:31:57;;;;;;;5.13;0.90;;;;;;;;;;5056242;28;20041;-80
2023/12/22 04:34:23;;;;;;;3.65;0.98;;;;;;;;;;5051192;28;20033;-80
2023/12/22 04:36:49;;;;;;;7.72;1.77;;;;;;;;;;5048032;28;20399;-80
2023/12/22 04:39:15;;;;;;;7.90;1.40;;;;;;;;;;5044858;28;20048;-80
2023/12/22 04:41:41;;;;;;;3.60;1.17;;;;;;;;;;5053541;28;20048;-80
2023/12/22 04:44:07;;;;;;;2.17;0.93;;;;;;;;;;5055407;28;20117;-80
2023/12/22 04:46:33;;;;;;;3.30;0.93;;;;;;;;;;5048932;28;20048;-80
2023/12/22 04:49:01;;;;;;;1.65;0.70;;;;;;;;;;5059674;28;20040;-80
2023/12/22 04:51:27;;;;;;;4.00;0.73;;;;;;;;;;5057503;28;20097;-80
2023/12/22 04:53:53;;;;;;;3.33;1.48;;;;;;;;;;5052424;28;20653;-80
2023/12/22 04:56:19;;;;;;;7.95;1.58;;;;;;;;;;5061228;28;20126;-81
2023/12/22 04:58:45;;;;;;;4.75;1.05;;;;;;;;;;5043241;28;20072;-81
2023/12/22 05:01:11;;;;;;;4.70;2.00;;;;;;;;;;5040955;28;20045;-80
2023/12/22 05:03:37;;;;;;;5.80;1.95;;;;;;;;;;5045065;28;20037;-80
2023/12/22 05:06:03;;;;;;;1.30;0.95;;;;;;;;;;5029598;28;20048;-79
2023/12/22 05:08:29;;;;;;;4.40;1.38;;;;;;;;;;5027734;28;20075;-79
2023/12/22 05:10:55;;;;;;;4.03;1.00;;;;;;;;;;5025787;28;20092;-79
2023/12/22 05:13:21;;;;;;;7.13;1.58;;;;;;;;;;5024963;28;20096;-78
2023/12/22 05:15:47;;;;;;;7.18;1.83;;;;;;;;;;5027696;28;20033;-79
2023/12/22 05:18:14;;;;;;;12.27;1.35;;;;;;;;;;5037065;28;20043;-79
2023/12/22 05:20:39;;;;;;;11.32;1.75;;;;;;;;;;5051352;28;20054;-80
2023/12/22 05:23:05;;;;;;;11.52;1.83;;;;;;;;;;5029802;28;20075;-80
2023/12/22 05:25:31;;;;;;;7.30;1.77;;;;;;;;;;5029203;28;20445;-79
2023/12/22 05:27:58;;;;;;;4.75;1.52;;;;;;;;;;5028941;28;20072;-80
2023/12/22 05:30:26;;;;;;;9.07;1.00;;;;;;;;;;5047508;28;20075;-79
2023/12/22 05:32:54;;;;;;;5.15;1.25;;;;;;;;;;5027869;28;20036;-80
2023/12/22 05:35:20;;;;;;;6.88;1.85;;;;;;;;;;5047121;28;20107;-79
2023/12/22 05:37:47;;;;;;;1.65;0.85;;;;;;;;;;5027714;28;20095;-79
2023/12/22 05:40:13;;;;;;;8.25;1.33;;;;;;;;;;5025705;28;20116;-79
2023/12/22 05:42:40;;;;;;;8.35;2.67;;;;;;;;;;5048434;28;20040;-79
2023/12/22 05:45:06;;;;;;;1.92;0.68;;;;;;;;;;5044869;28;20064;-79
2023/12/22 05:47:32;;;;;;;6.75;1.80;;;;;;;;;;5029030;28;20501;-79
2023/12/22 05:49:59;;;;;;;4.15;1.80;;;;;;;;;;5048950;28;20056;-79
2023/12/22 05:52:25;;;;;;;8.98;1.38;;;;;;;;;;5054391;28;20121;-79
2023/12/22 05:54:51;;;;;;;8.88;1.30;;;;;;;;;;5036292;28;20550;-79
2023/12/22 05:57:17;;;;;;;3.90;2.92;;;;;;;;;;5041101;28;20049;-80
2023/12/22 05:59:43;;;;;;;5.95;1.25;;;;;;;;;;5058239;28;20042;-80
2023/12/22 06:02:09;;;;;;;5.38;1.08;;;;;;;;;;5053047;28;20121;-80
2023/12/22 06:04:35;;;;;;;3.92;0.95;;;;;;;;;;5054141;28;20124;-79
2023/12/22 06:07:01;;;;;;;8.02;1.52;;;;;;;;;;5048890;28;20068;-79
2023/12/22 06:09:28;;;;;;;5.40;1.02;;;;;;;;;;5045429;28;20034;-80
2023/12/22 06:11:54;;;;;;;5.97;1.45;;;;;;;;;;5041432;28;20095;-79
2023/12/22 06:14:23;;;;;;;2.45;1.75;;;;;;;;;;5030571;28;20041;-82
2023/12/22 06:16:50;;;;;;;7.65;1.50;;;;;;;;;;5054451;28;20047;-81
2023/12/22 06:19:16;;;;;;;8.20;1.58;;;;;;;;;;5027170;28;20047;-81
2023/12/22 06:21:42;;;;;;;3.47;1.13;;;;;;;;;;5060625;28;20040;-84
2023/12/22 06:24:09;;;;;;;3.88;1.00;;;;;;;;;;5032185;28;20044;-83
2023/12/22 06:26:35;;;;;;;3.10;0.60;;;;;;;;;;5031988;28;20045;-81
2023/12/22 06:29:03;;;;;;;3.17;0.80;;;;;;;;;;5049438;28;20056;-82
2023/12/22 06:31:29;;;;;;;7.15;1.52;;;;;;;;;;5048570;28;20045;-83
2023/12/22 06:34:00;;;;;;;3.72;0.93;;;;;;;;;;5044611;28;20460;-82
2023/12/22 06:36:26;;;;;;;5.53;0.93;;;;;;;;;;5048016;28;20072;-82
2023/12/22 06:38:53;;;;;;;4.18;0.55;;;;;;;;;;5050631;28;20041;-83
2023/12/22 06:41:25;;;;;;;5.10;1.20;;;;;;;;;;5047138;28;20044;-83
2023/12/22 06:43:51;;;;;;;5.40;0.95;;;;;;;;;;5026260;28;20098;-84
2023/12/22 06:46:18;;;;;;;6.32;1.55;;;;;;;;;;5032497;28;20052;-82
2023/12/22 06:48:45;;;;;;;4.88;1.45;;;;;;;;;;5046047;28;20037;-83
2023/12/22 06:51:26;;;;;;;8.88;1.60;;;;;;;;;;5047028;28;20032;-83
2023/12/22 06:53:52;;;;;;;5.57;1.45;;;;;;;;;;5043708;28;20037;-82
2023/12/22 06:56:18;;;;;;;3.95;1.13;;;;;;;;;;5046940;28;20055;-83
2023/12/22 06:58:46;;;;;;;2.15;0.80;;;;;;;;;;5046673;28;20041;-83
2023/12/22 07:01:12;;;;;;;7.05;1.20;;;;;;;;;;5030953;28;20077;-82
2023/12/22 07:03:38;;;;;;;3.47;0.98;;;;;;;;;;5052301;28;20411;-84
2023/12/22 07:06:05;;;;;;;1.23;0.63;;;;;;;;;;5048773;28;20042;-82
2023/12/22 07:08:30;;;;;;;5.32;1.05;;;;;;;;;;5032487;28;20044;-84
2023/12/22 07:10:56;;;;;;;2.92;0.47;;;;;;;;;;5021890;28;20514;-82
2023/12/22 07:13:22;;;;;;;2.55;0.82;;;;;;;;;;5043994;28;20134;-82
2023/12/22 07:15:48;;;;;;;5.20;1.35;;;;;;;;;;5048674;28;20045;-83
2023/12/22 07:18:14;;;;;;;7.13;1.38;;;;;;;;;;5031097;28;20041;-83
2023/12/22 07:20:40;;;;;;;2.83;0.73;;;;;;;;;;5048597;28;20057;-82
2023/12/22 07:23:06;;;;;;;5.32;1.02;;;;;;;;;;5030066;28;20034;-82
2023/12/22 07:25:36;;;;;;;12.65;1.13;;;;;;;;;;5031676;28;20088;-84
2023/12/22 07:28:02;;;;;;;5.93;1.30;;;;;;;;;;5029732;28;20092;-84
2023/12/22 07:30:28;;;;;;;4.63;0.55;;;;;;;;;;5034725;28;20076;-84
2023/12/22 07:32:54;;;;;;;6.32;1.10;;;;;;;;;;5030531;28;20033;-83
2023/12/22 07:35:20;;;;;;;5.82;1.77;;;;;;;;;;5032088;28;20045;-84
2023/12/22 07:37:46;;;;;;;6.22;1.45;;;;;;;;;;5047849;28;20097;-84
2023/12/22 07:40:12;;;;;;;4.53;0.90;;;;;;;;;;5028310;28;20068;-83
2023/12/22 07:42:38;;;;;;;5.10;1.70;;;;;;;;;;5048405;28;20076;-84
2023/12/22 07:45:05;;;;;;;2.53;0.73;;;;;;;;;;5047055;28;20119;-83
2023/12/22 07:47:31;;;;;;;6.03;1.75;;;;;;;;;;5048715;28;20037;-81
2023/12/22 07:49:57;;;;;;;7.28;1.75;;;;;;;;;;5044661;28;20032;-82
2023/12/22 07:52:23;;;;;;;4.63;1.00;;;;;;;;;;5032260;28;20544;-82
2023/12/22 07:54:49;;;;;;;6.07;2.08;;;;;;;;;;5029479;28;20052;-81
2023/12/22 07:57:15;;;;;;;5.30;1.10;;;;;;;;;;5051363;28;20052;-81
2023/12/22 07:59:41;;;;;;;7.13;1.65;;;;;;;;;;5029453;28;20053;-81
2023/12/22 08:02:07;;;;;;;10.73;1.92;;;;;;;;;;5051051;28;20041;-82
2023/12/22 08:04:33;;;;;;;5.53;1.45;;;;;;;;;;5050386;28;20033;-81
2023/12/22 08:06:59;;;;;;;8.05;1.48;;;;;;;;;;5054534;28;20041;-81
2023/12/22 08:09:25;;;;;;;2.83;0.50;;;;;;;;;;5056862;28;20033;-82
2023/12/22 08:11:52;;;;;;;4.05;1.38;;;;;;;;;;5048610;28;20403;-81
2023/12/22 08:14:19;;;;;;;1.63;0.85;;;;;;;;;;5059071;28;20048;-82
2023/12/22 08:16:45;;;;;;;4.57;1.05;;;;;;;;;;5053118;28;20423;-85
2023/12/22 08:19:11;;;;;;;5.43;1.23;;;;;;;;;;5039690;28;20063;-82
2023/12/22 08:21:37;;;;;;;9.88;1.65;;;;;;;;;;5056967;28;20112;-82
2023/12/22 08:24:03;;;;;;;8.30;1.10;;;;;;;;;;5056519;28;20044;-83
2023/12/22 08:26:29;;;;;;;6.30;1.33;;;;;;;;;;5049488;28;20042;-83
2023/12/22 08:28:55;;;;;;;9.52;1.67;;;;;;;;;;5032320;28;20044;-84
2023/12/22 08:31:21;;;;;;;3.97;1.00;;;;;;;;;;5033060;28;20033;-84
2023/12/22 08:33:47;;;;;;;5.82;1.25;;;;;;;;;;5027920;28;20048;-84
2023/12/22 08:36:13;;;;;;;5.53;1.92;;;;;;;;;;5049872;28;20043;-80
2023/12/22 08:38:40;;;;;;;4.90;0.98;;;;;;;;;;5054781;28;20097;-81
2023/12/22 08:41:07;;;;;;;9.52;1.92;;;;;;;;;;5059490;28;20048;-81
2023/12/22 08:43:34;;;;;;;0.60;0.28;;;;;;;;;;5045058;28;20063;-81
2023/12/22 08:46:00;;;;;;;4.28;1.05;;;;;;;;;;5054003;28;20087;-80
2023/12/22 08:48:26;;;;;;;3.75;0.93;;;;;;;;;;5048458;28;20542;-80
2023/12/22 08:50:52;;;;;;;3.15;1.20;;;;;;;;;;5031136;28;20079;-81
2023/12/22 08:53:18;;;;;;;3.10;0.55;;;;;;;;;;5047662;28;20037;-80
2023/12/22 08:55:44;;;;;;;8.38;1.38;;;;;;;;;;5048226;28;20057;-83
2023/12/22 08:58:11;;;;;;;1.33;0.50;;;;;;;;;;5024289;28;20060;-86
2023/12/22 09:00:37;;;;;;;2.28;0.60;;;;;;;;;;5038968;28;20044;-82
2023/12/22 09:03:03;;;;;;;0.00;0.00;;;;;;;;;;5050130;28;20041;-85
2023/12/22 09:05:29;;;;;;;6.38;0.82;;;;;;;;;;5031080;28;20033;-83
2023/12/22 09:07:55;;;;;;;1.75;0.55;;;;;;;;;;5043770;28;20032;-83
2023/12/22 09:10:21;;;;;;;0.52;0.30;;;;;;;;;;5053359;28;20487;-81
2023/12/22 09:12:47;;;;;;;0.68;0.45;;;;;;;;;;5052112;28;20097;-81
2023/12/22 09:15:13;;;;;;;2.20;0.82;;;;;;;;;;5049567;28;20392;-83
2023/12/22 09:17:41;;;;;;;0.55;0.20;;;;;;;;;;5051927;28;20041;-82
2023/12/22 09:20:07;;;;;;;0.98;0.40;;;;;;;;;;5051021;28;20500;-82
2023/12/22 09:22:33;;;;;;;1.20;0.30;;;;;;;;;;5051429;28;20075;-82
2023/12/22 09:24:59;;;;;;;2.22;0.32;;;;;;;;;;5049370;28;20045;-81
2023/12/22 09:27:30;;;;;;;4.78;0.75;;;;;;;;;;5034720;28;20091;-82
2023/12/22 09:29:56;;;;;;;0.45;0.25;;;;;;;;;;5056782;28;20043;-82
2023/12/22 09:32:22;;;;;;;3.30;0.90;;;;;;;;;;5056178;28;20073;-82
2023/12/22 09:34:48;;;;;;;0.55;0.10;;;;;;;;;;5063952;28;20037;-82
2023/12/22 09:37:14;;;;;;;2.60;0.45;;;;;;;;;;5060804;28;20049;-83
2023/12/22 09:39:40;;;;;;;1.73;0.80;;;;;;;;;;5059887;28;20036;-82
2023/12/22 09:42:06;;;;;;;1.67;0.73;;;;;;;;;;5057802;28;20040;-81
2023/12/22 09:44:33;;;;;;;1.67;0.50;;;;;;;;;;5059778;28;20041;-81
2023/12/22 09:47:02;;;;;;;1.88;0.43;;;;;;;;;;5041117;28;20057;-81
2023/12/22 09:49:29;;;;;;;1.92;0.22;;;;;;;;;;5057942;28;20048;-81
2023/12/22 09:51:55;;;;;;;1.38;0.17;;;;;;;;;;5061636;28;20384;-82
2023/12/22 09:54:22;;;;;;;1.63;0.30;;;;;;;;;;5049708;28;20083;-81
2023/12/22 09:56:48;;;;;;;5.50;0.93;;;;;;;;;;5053121;28;20115;-81
2023/12/22 09:59:15;;;;;;;1.70;0.30;;;;;;;;;;5045969;28;20060;-81
2023/12/22 10:01:45;;;;;;;3.72;0.70;;;;;;;;;;5017044;28;20037;-81
2023/12/22 10:04:12;;;;;;;0.57;0.57;;;;;;;;;;5054668;28;20537;-81
2023/12/22 10:06:38;;;;;;;1.17;0.15;;;;;;;;;;5029623;28;20124;-80
2023/12/22 10:09:06;;;;;;;0.57;0.32;;;;;;;;;;5048927;28;20069;-82
2023/12/22 10:11:33;;;;;;;1.95;0.70;;;;;;;;;;5051835;28;20063;-81
2023/12/22 10:14:00;;;;;;;0.57;0.55;;;;;;;;;;5050147;28;20041;-81
2023/12/22 10:16:27;;;;;;;4.60;0.52;;;;;;;;;;5045296;28;20117;-81
2023/12/22 10:18:54;;;;;;;4.28;0.50;;;;;;;;;;5050350;28;20069;-81
2023/12/22 10:21:20;;;;;;;0.63;0.30;;;;;;;;;;5034551;28;20034;-82
2023/12/22 10:23:46;;;;;;;4.85;0.70;;;;;;;;;;5033289;28;20048;-80
2023/12/22 10:26:12;;;;;;;4.38;1.30;;;;;;;;;;5047804;28;20045;-80
2023/12/22 10:28:38;;;;;;;3.58;1.00;;;;;;;;;;5046340;28;20046;-82
2023/12/22 10:31:07;;;;;;;0.25;0.25;;;;;;;;;;5012461;28;20045;-82
2023/12/22 10:33:33;;;;;;;9.93;0.77;;;;;;;;;;5034072;28;20068;-81
2023/12/22 10:36:02;;;;;;;6.13;1.40;;;;;;;;;;5054417;28;20055;-81
2023/12/22 10:38:34;;;;;;;2.47;0.68;;;;;;;;;;5050330;28;20381;-83
2023/12/22 10:41:04;;;;;;;2.65;0.38;;;;;;;;;;5016637;28;20037;-82
2023/12/22 10:43:30;;;;;;;1.20;0.57;;;;;;;;;;5030817;28;20037;-81
2023/12/22 10:45:56;;;;;;;4.25;0.73;;;;;;;;;;5048718;28;20391;-83
2023/12/22 10:48:23;;;;;;;3.83;0.90;;;;;;;;;;5049089;28;20040;-84
2023/12/22 10:50:50;;;;;;;1.90;0.77;;;;;;;;;;5033474;28;20079;-83
2023/12/22 10:53:16;;;;;;;2.55;0.75;;;;;;;;;;5053949;28;20037;-83
2023/12/22 10:55:42;;;;;;;3.70;0.90;;;;;;;;;;5054495;28;20080;-85
2023/12/22 10:58:09;;;;;;;0.10;0.10;;;;;;;;;;5049707;28;20076;-83
2023/12/22 11:00:37;;;;;;;7.10;0.70;;;;;;;;;;5045095;28;20046;-83
2023/12/22 11:03:08;;;;;;;2.75;1.00;;;;;;;;;;5049301;28;20041;-83
2023/12/22 11:05:34;;;;;;;6.22;1.20;;;;;;;;;;5025823;28;20051;-84
2023/12/22 11:08:02;;;;;;;4.65;0.75;;;;;;;;;;5031091;28;20450;-83
2023/12/22 11:10:28;;;;;;;3.85;1.40;;;;;;;;;;5034320;28;20037;-84
2023/12/22 11:12:56;;;;;;;3.67;1.15;;;;;;;;;;5042987;28;20048;-84
2023/12/22 11:15:22;;;;;;;0.17;0.17;;;;;;;;;;5031355;28;20068;-84
2023/12/22 11:17:49;;;;;;;2.58;0.70;;;;;;;;;;5048292;28;20041;-83
2023/12/22 11:20:16;;;;;;;3.78;0.80;;;;;;;;;;5048338;28;20048;-84
2023/12/22 11:22:43;;;;;;;5.78;0.77;;;;;;;;;;5049234;28;20041;-84
2023/12/22 11:25:09;;;;;;;5.13;0.82;;;;;;;;;;5044242;28;20045;-85
2023/12/22 11:27:37;;;;;;;3.00;0.63;;;;;;;;;;5024657;28;20045;-86
2023/12/22 11:30:08;;;;;;;3.03;0.68;;;;;;;;;;5044872;28;20036;-87
2023/12/22 11:32:34;;;;;;;5.10;0.30;;;;;;;;;;5047712;28;20045;-86
2023/12/22 11:35:00;;;;;;;0.35;0.30;;;;;;;;;;5031108;28;20041;-85
2023/12/22 11:37:26;;;;;;;1.65;0.32;;;;;;;;;;5048999;28;20040;-86
2023/12/22 11:39:52;;;;;;;1.42;0.28;;;;;;;;;;5025900;28;20097;-86
2023/12/22 11:42:25;;;;;;;4.68;0.57;;;;;;;;;;5027152;28;20042;-86
2023/12/22 11:44:54;;;;;;;2.95;0.50;;;;;;;;;;5023141;28;20052;-87
2023/12/22 11:47:23;;;;;;;2.15;0.70;;;;;;;;;;5032276;28;20107;-86
2023/12/22 11:49:52;;;;;;;3.92;0.43;;;;;;;;;;5043561;28;20033;-88
2023/12/22 11:52:19;;;;;;;0.75;0.40;;;;;;;;;;5036904;28;20041;-86
2023/12/22 11:54:49;;;;;;;1.55;0.10;;;;;;;;;;5046578;28;20067;-86
2023/12/22 11:57:31;;;;;;;5.35;0.60;;;;;;;;;;5049367;28;20041;-85
2023/12/22 11:59:57;;;;;;;0.50;0.05;;;;;;;;;;5034717;28;20071;-84
2023/12/22 12:02:23;;;;;;;3.42;0.30;;;;;;;;;;5058374;28;20037;-84
2023/12/22 12:04:49;;;;;;;2.53;0.30;;;;;;;;;;5050393;28;20042;-83
2023/12/22 12:07:35;;;;;;;0.80;0.17;;;;;;;;;;5048625;28;20037;-84
2023/12/22 12:10:01;;;;;;;2.25;0.70;;;;;;;;;;5024924;28;20053;-84
2023/12/22 12:12:29;;;;;;;2.58;0.60;;;;;;;;;;5055754;28;20530;-84
2023/12/22 12:14:58;;;;;;;2.10;0.55;;;;;;;;;;5034490;28;20047;-83
2023/12/22 12:17:24;;;;;;;0.43;0.28;;;;;;;;;;5029824;28;20052;-84
2023/12/22 12:19:51;;;;;;;1.50;0.60;;;;;;;;;;5052097;28;20040;-83
2023/12/22 12:22:18;;;;;;;1.02;0.73;;;;;;;;;;5052922;28;20041;-84
2023/12/22 12:24:45;;;;;;;1.15;0.17;;;;;;;;;;5028902;28;20056;-83
2023/12/22 12:27:11;;;;;;;4.53;0.75;;;;;;;;;;5046299;28;20041;-83
2023/12/22 12:29:39;;;;;;;1.45;0.47;;;;;;;;;;5050866;28;20042;-84
2023/12/22 12:32:05;;;;;;;1.75;0.13;;;;;;;;;;5031239;28;20120;-84
2023/12/22 12:34:32;;;;;;;4.55;0.45;;;;;;;;;;5046450;28;20037;-84
2023/12/22 12:36:58;;;;;;;4.20;1.25;;;;;;;;;;5030450;28;20041;-84
2023/12/22 12:39:28;;;;;;;1.08;0.20;;;;;;;;;;5053091;28;20045;-84
2023/12/22 12:41:56;;;;;;;0.35;0.20;;;;;;;;;;5043735;28;20045;-84
2023/12/22 12:44:23;;;;;;;1.33;0.88;;;;;;;;;;5045364;28;20052;-84
2023/12/22 12:46:52;;;;;;;1.15;0.30;;;;;;;;;;5047047;28;20037;-84
2023/12/22 12:49:19;;;;;;;1.02;0.50;;;;;;;;;;5030018;28;20038;-85
2023/12/22 12:51:47;;;;;;;3.72;0.60;;;;;;;;;;5051368;28;20429;-84
2023/12/22 12:54:14;;;;;;;3.22;0.60;;;;;;;;;;5054097;28;20408;-83
2023/12/22 12:56:40;;;;;;;4.30;0.73;;;;;;;;;;5049283;28;20083;-85
2023/12/22 12:59:17;;;;;;;2.35;0.80;;;;;;;;;;5027108;28;20404;-84
2023/12/22 13:01:45;;;;;;;5.30;0.80;;;;;;;;;;5047539;28;20048;-84
2023/12/22 13:04:12;;;;;;;0.32;0.20;;;;;;;;;;5021594;28;20041;-85
2023/12/22 13:06:45;;;;;;;0.47;0.20;;;;;;;;;;5058501;28;20122;-84
2023/12/22 13:09:12;;;;;;;1.92;0.52;;;;;;;;;;5026294;28;20044;-85
2023/12/22 13:11:39;;;;;;;4.20;0.65;;;;;;;;;;5029555;28;20130;-84
2023/12/22 13:14:06;;;;;;;1.23;0.75;;;;;;;;;;5026996;28;20044;-83
2023/12/22 13:16:32;;;;;;;5.53;2.20;;;;;;;;;;5030802;28;20517;-84
2023/12/22 13:18:59;;;;;;;6.80;1.80;;;;;;;;;;5007776;28;20063;-84
2023/12/22 13:21:25;;;;;;;7.28;1.65;;;;;;;;;;5028806;28;20041;-86
2023/12/22 13:24:10;;;;;;;2.55;1.05;;;;;;;;;;5041500;28;20029;-86
2023/12/22 13:26:37;;;;;;;7.53;1.60;;;;;;;;;;5010744;28;20051;-84
2023/12/22 13:29:03;;;;;;;4.53;1.02;;;;;;;;;;5028816;28;20072;-83
2023/12/22 13:31:33;;;;;;;2.50;0.65;;;;;;;;;;5051384;28;20132;-82
2023/12/22 13:33:59;;;;;;;2.83;1.60;;;;;;;;;;5029613;28;20052;-83
2023/12/22 13:36:25;;;;;;;2.22;1.33;;;;;;;;;;5044194;28;20041;-85
2023/12/22 13:38:51;;;;;;;3.58;1.35;;;;;;;;;;5046292;28;20048;-84
2023/12/22 13:41:17;;;;;;;6.00;2.65;;;;;;;;;;5032496;28;20038;-83
2023/12/22 13:43:44;;;;;;;3.85;1.40;;;;;;;;;;5052056;28;20040;-83
2023/12/22 13:46:17;;;;;;;4.10;1.77;;;;;;;;;;5028945;28;20049;-83
2023/12/22 13:48:43;;;;;;;7.25;2.08;;;;;;;;;;5047223;28;20038;-82
2023/12/22 13:51:09;;;;;;;1.83;1.27;;;;;;;;;;5044158;28;20125;-83
2023/12/22 13:53:36;;;;;;;2.65;1.20;;;;;;;;;;5049078;28;20076;-82
2023/12/22 13:56:02;;;;;;;4.32;1.77;;;;;;;;;;5056614;28;20058;-82
2023/12/22 13:58:28;;;;;;;5.57;0.75;;;;;;;;;;5057123;28;20095;-82
2023/12/22 14:00:54;;;;;;;0.82;0.50;;;;;;;;;;5049606;28;20041;-84
2023/12/22 14:03:21;;;;;;;1.80;0.65;;;;;;;;;;5057570;28;20033;-83
2023/12/22 14:05:49;;;;;;;6.93;1.20;;;;;;;;;;5058443;28;20081;-82
2023/12/22 14:08:17;;;;;;;1.15;0.35;;;;;;;;;;5048031;28;20030;-82
2023/12/22 14:10:49;;;;;;;8.57;1.15;;;;;;;;;;5050845;28;20056;-83
2023/12/22 14:13:15;;;;;;;0.90;0.43;;;;;;;;;;5055116;28;20040;-82
2023/12/22 14:15:44;;;;;;;2.88;1.08;;;;;;;;;;5049815;28;20055;-82
2023/12/22 14:18:11;;;;;;;2.90;1.05;;;;;;;;;;5048898;28;20377;-81
2023/12/22 14:20:37;;;;;;;2.42;0.75;;;;;;;;;;5049896;28;20037;-81
2023/12/22 14:23:03;;;;;;;1.63;0.80;;;;;;;;;;5044257;28;20056;-81
2023/12/22 14:25:31;;;;;;;2.80;0.50;;;;;;;;;;5051623;28;20044;-82
2023/12/22 14:27:58;;;;;;;4.30;0.50;;;;;;;;;;5032347;28;20049;-81
2023/12/22 14:30:24;;;;;;;4.00;0.55;;;;;;;;;;5029824;28;20062;-82
2023/12/22 14:32:50;;;;;;;1.40;0.80;;;;;;;;;;5041714;28;20037;-82
2023/12/22 14:35:16;;;;;;;2.70;0.43;;;;;;;;;;5044837;28;20044;-81
2023/12/22 14:37:43;;;;;;;3.20;0.30;;;;;;;;;;5055403;28;20041;-82
2023/12/22 14:40:09;;;;;;;0.10;0.10;;;;;;;;;;5051682;28;20049;-81